createdAt,value
2018-11-03T00:00:09.042Z,9.20
2018-11-03T00:02:38.337Z,9.10
2018-11-03T00:05:07.269Z,9.00
2018-11-03T00:07:36.556Z,8.90
2018-11-03T00:10:06.954Z,8.90
2018-11-03T00:12:36.601Z,8.90
2018-11-03T00:15:06.063Z,9.00
2018-11-03T00:17:35.113Z,8.90
2018-11-03T00:20:04.140Z,8.90
2018-11-03T00:22:33.093Z,8.90
2018-11-03T00:25:02.398Z,8.80
2018-11-03T00:27:31.605Z,8.80
2018-11-03T00:30:00.570Z,8.70
2018-11-03T00:32:29.465Z,8.70
2018-11-03T00:34:58.673Z,8.70
2018-11-03T00:37:27.561Z,8.70
2018-11-03T00:39:56.461Z,8.70
2018-11-03T00:42:25.377Z,8.60
2018-11-03T00:44:54.281Z,8.60
2018-11-03T00:47:23.184Z,8.60
2018-11-03T00:49:52.081Z,8.50
2018-11-03T00:52:21.208Z,8.50
2018-11-03T00:54:50.101Z,8.50
2018-11-03T00:57:19.234Z,8.50
2018-11-03T00:59:48.271Z,8.40
2018-11-03T01:02:17.198Z,8.30
2018-11-03T01:04:46.997Z,8.30
2018-11-03T01:07:15.997Z,8.30
2018-11-03T01:09:44.922Z,8.30
2018-11-03T01:12:13.865Z,8.40
2018-11-03T01:14:42.805Z,8.40
2018-11-03T01:17:11.782Z,8.40
2018-11-03T01:19:40.673Z,8.40
2018-11-03T01:22:09.606Z,8.50
2018-11-03T01:24:38.962Z,8.50
2018-11-03T01:27:07.883Z,8.50
2018-11-03T01:29:37.364Z,8.50
2018-11-03T01:32:06.273Z,8.60
2018-11-03T01:34:35.199Z,8.60
2018-11-03T01:37:04.105Z,8.60
2018-11-03T01:39:32.994Z,8.60
2018-11-03T01:42:01.887Z,8.60
2018-11-03T01:44:30.785Z,8.70
2018-11-03T01:46:59.697Z,8.70
2018-11-03T01:49:28.577Z,8.80
2018-11-03T01:51:58.181Z,8.80
2018-11-03T01:54:27.093Z,8.80
2018-11-03T01:56:55.965Z,8.80
2018-11-03T01:59:24.870Z,8.70
2018-11-03T02:01:53.776Z,8.70
2018-11-03T02:04:22.723Z,8.60
2018-11-03T02:06:51.686Z,8.60
2018-11-03T02:09:20.924Z,8.50
2018-11-03T02:11:50.301Z,8.40
2018-11-03T02:14:19.637Z,8.30
2018-11-03T02:16:49.019Z,8.30
2018-11-03T02:19:18.222Z,8.20
2018-11-03T02:21:47.593Z,8.20
2018-11-03T02:24:16.493Z,8.10
2018-11-03T02:26:45.390Z,8.10
2018-11-03T02:29:14.462Z,8.00
2018-11-03T02:31:43.346Z,8.00
2018-11-03T02:34:12.249Z,8.00
2018-11-03T02:36:41.582Z,7.90
2018-11-03T02:39:10.873Z,8.00
2018-11-03T02:41:39.897Z,8.00
2018-11-03T02:44:08.905Z,8.10
2018-11-03T02:46:37.817Z,8.10
2018-11-03T02:49:07.534Z,8.10
2018-11-03T02:51:36.474Z,8.00
2018-11-03T02:54:05.914Z,8.10
2018-11-03T02:56:34.785Z,8.00
2018-11-03T02:59:03.717Z,8.00
2018-11-03T03:01:32.805Z,7.90
2018-11-03T03:04:02.051Z,7.90
2018-11-03T03:06:31.434Z,7.90
2018-11-03T03:09:00.335Z,7.80
2018-11-03T03:11:29.285Z,7.70
2018-11-03T03:13:58.210Z,7.50
2018-11-03T03:16:27.663Z,7.40
2018-11-03T03:18:56.925Z,7.30
2018-11-03T03:21:26.405Z,7.30
2018-11-03T03:23:55.298Z,7.30
2018-11-03T03:26:24.189Z,7.30
2018-11-03T03:28:53.161Z,7.30
2018-11-03T03:31:22.331Z,7.30
2018-11-03T03:33:51.310Z,7.30
2018-11-03T03:36:20.467Z,7.20
2018-11-03T03:38:49.654Z,7.20
2018-11-03T03:41:18.644Z,7.20
2018-11-03T03:43:47.557Z,7.20
2018-11-03T03:46:16.533Z,7.30
2018-11-03T03:48:45.609Z,7.30
2018-11-03T03:51:14.818Z,7.40
2018-11-03T03:53:43.904Z,7.50
2018-11-03T03:56:12.794Z,7.50
2018-11-03T03:58:42.063Z,7.60
2018-11-03T04:01:11.197Z,7.60
2018-11-03T04:03:40.338Z,7.70
2018-11-03T04:06:09.600Z,7.80
2018-11-03T04:08:38.786Z,7.80
2018-11-03T04:11:07.909Z,7.80
2018-11-03T04:13:37.187Z,7.90
2018-11-03T04:16:06.462Z,7.90
2018-11-03T04:18:35.409Z,7.90
2018-11-03T04:21:04.318Z,8.00
2018-11-03T04:23:33.211Z,8.00
2018-11-03T04:26:02.096Z,7.90
2018-11-03T04:28:31.009Z,8.00
2018-11-03T04:30:59.897Z,8.00
2018-11-03T04:33:28.777Z,8.00
2018-11-03T04:35:57.674Z,8.00
2018-11-03T04:38:26.581Z,7.90
2018-11-03T04:40:55.490Z,7.90
2018-11-03T04:43:24.397Z,7.90
2018-11-03T04:45:53.386Z,7.90
2018-11-03T04:48:22.849Z,7.90
2018-11-03T04:50:52.301Z,7.80
2018-11-03T04:53:21.240Z,7.80
2018-11-03T04:55:50.452Z,7.80
2018-11-03T04:58:19.345Z,7.90
2018-11-03T05:00:48.241Z,7.80
2018-11-03T05:03:17.142Z,7.90
2018-11-03T05:05:46.061Z,7.90
2018-11-03T05:08:15.083Z,7.90
2018-11-03T05:10:44.032Z,7.90
2018-11-03T05:13:12.997Z,7.90
2018-11-03T05:15:41.944Z,8.00
2018-11-03T05:18:10.850Z,8.00
2018-11-03T05:20:39.773Z,7.90
2018-11-03T05:23:08.661Z,8.00
2018-11-03T05:25:37.549Z,8.00
2018-11-03T05:28:06.549Z,8.00
2018-11-03T05:30:35.449Z,7.90
2018-11-03T05:33:04.695Z,7.90
2018-11-03T05:35:33.622Z,7.90
2018-11-03T05:38:02.538Z,7.90
2018-11-03T05:40:31.437Z,7.90
2018-11-03T05:43:00.421Z,7.90
2018-11-03T05:45:29.681Z,7.90
2018-11-03T05:47:58.961Z,7.90
2018-11-03T05:50:27.870Z,7.90
2018-11-03T05:52:56.929Z,7.90
2018-11-03T05:55:25.825Z,7.90
2018-11-03T05:57:54.750Z,7.90
2018-11-03T06:00:26.653Z,7.90
2018-11-03T06:02:56.277Z,7.90
2018-11-03T06:05:25.225Z,7.90
2018-11-03T06:07:54.222Z,7.90
2018-11-03T06:10:23.251Z,7.90
2018-11-03T06:12:52.167Z,7.80
2018-11-03T06:15:21.130Z,7.90
2018-11-03T06:17:50.030Z,7.80
2018-11-03T06:20:19.320Z,7.80
2018-11-03T06:22:48.230Z,7.80
2018-11-03T06:25:17.286Z,7.90
2018-11-03T06:27:46.169Z,7.80
2018-11-03T06:30:15.063Z,7.80
2018-11-03T06:32:43.961Z,7.80
2018-11-03T06:35:13.284Z,7.90
2018-11-03T06:37:42.161Z,7.90
2018-11-03T06:40:11.103Z,7.90
2018-11-03T06:42:39.999Z,7.80
2018-11-03T06:45:09.649Z,7.80
2018-11-03T06:47:38.640Z,7.80
2018-11-03T06:50:08.086Z,7.80
2018-11-03T06:52:36.953Z,7.70
2018-11-03T06:55:06.846Z,7.80
2018-11-03T06:57:35.831Z,7.90
2018-11-03T07:00:06.004Z,7.80
2018-11-03T07:02:34.953Z,7.80
2018-11-03T07:05:03.894Z,7.80
2018-11-03T07:07:32.893Z,7.70
2018-11-03T07:10:01.834Z,7.70
2018-11-03T07:12:30.923Z,7.60
2018-11-03T07:14:59.745Z,7.60
2018-11-03T07:17:28.866Z,7.60
2018-11-03T07:19:57.829Z,7.70
2018-11-03T07:22:26.778Z,7.70
2018-11-03T07:24:55.705Z,7.80
2018-11-03T07:27:24.659Z,7.70
2018-11-03T07:29:53.719Z,7.80
2018-11-03T07:32:22.648Z,7.80
2018-11-03T07:34:51.585Z,7.90
2018-11-03T07:37:20.770Z,7.90
2018-11-03T07:39:49.669Z,8.00
2018-11-03T07:42:18.678Z,8.00
2018-11-03T07:44:47.647Z,8.00
2018-11-03T07:47:16.553Z,8.00
2018-11-03T07:49:45.505Z,8.10
2018-11-03T07:52:14.390Z,8.30
2018-11-03T07:54:43.437Z,8.50
2018-11-03T07:57:12.350Z,8.70
2018-11-03T07:59:41.213Z,8.80
2018-11-03T08:02:10.244Z,8.80
2018-11-03T08:04:39.238Z,8.80
2018-11-03T08:07:08.249Z,8.80
2018-11-03T08:09:37.177Z,8.90
2018-11-03T08:12:06.897Z,8.80
2018-11-03T08:14:35.820Z,8.50
2018-11-03T08:17:04.761Z,8.60
2018-11-03T08:19:33.662Z,8.70
2018-11-03T08:22:02.606Z,8.70
2018-11-03T08:24:31.534Z,8.70
2018-11-03T08:27:00.460Z,8.70
2018-11-03T08:29:29.411Z,8.70
2018-11-03T08:31:58.429Z,8.70
2018-11-03T08:34:27.385Z,8.70
2018-11-03T08:36:56.261Z,8.80
2018-11-03T08:39:25.230Z,8.90
2018-11-03T08:41:54.117Z,8.90
2018-11-03T08:44:23.217Z,8.80
2018-11-03T08:49:20.753Z,9.00
2018-11-03T08:51:50.130Z,9.00
2018-11-03T08:54:19.125Z,9.30
2018-11-03T08:56:48.002Z,9.30
2018-11-03T08:59:16.868Z,9.40
2018-11-03T09:01:46.102Z,9.50
2018-11-03T09:04:15.560Z,9.50
2018-11-03T09:06:44.900Z,9.60
2018-11-03T09:09:14.201Z,9.40
2018-11-03T09:11:43.608Z,9.50
2018-11-03T09:14:12.978Z,10.00
2018-11-03T09:16:42.279Z,9.60
2018-11-03T09:19:11.159Z,9.00
2018-11-03T09:21:40.429Z,8.60
2018-11-03T09:24:09.997Z,8.50
2018-11-03T09:26:39.253Z,8.50
2018-11-03T09:29:08.648Z,8.50
2018-11-03T09:31:38.006Z,8.60
2018-11-03T09:34:07.381Z,8.70
2018-11-03T09:36:36.695Z,9.60
2018-11-03T09:39:08.399Z,9.90
2018-11-03T09:41:37.859Z,9.60
2018-11-03T09:44:07.567Z,9.30
2018-11-03T09:46:36.470Z,9.70
2018-11-03T09:49:06.273Z,9.70
2018-11-03T09:51:35.217Z,9.20
2018-11-03T09:54:04.173Z,9.20
2018-11-03T09:56:33.274Z,9.10
2018-11-03T09:59:02.609Z,9.20
2018-11-03T10:01:31.730Z,9.00
2018-11-03T10:04:00.739Z,8.80
2018-11-03T10:06:29.820Z,9.00
2018-11-03T10:08:58.791Z,8.80
2018-11-03T10:11:27.712Z,8.70
2018-11-03T10:13:56.647Z,9.60
2018-11-03T10:16:26.202Z,10.80
2018-11-03T10:18:56.306Z,10.90
2018-11-03T10:21:25.234Z,11.30
2018-11-03T10:23:54.252Z,12.30
2018-11-03T10:26:23.146Z,12.50
2018-11-03T10:28:52.357Z,12.60
2018-11-03T10:31:21.585Z,13.20
2018-11-03T10:33:50.550Z,12.60
2018-11-03T10:36:19.777Z,12.10
2018-11-03T10:38:48.763Z,12.20
2018-11-03T10:41:17.822Z,12.60
2018-11-03T10:43:46.725Z,12.50
2018-11-03T10:46:15.703Z,12.60
2018-11-03T10:48:44.625Z,11.70
2018-11-03T10:51:13.909Z,11.30
2018-11-03T10:53:43.307Z,11.10
2018-11-03T10:56:12.185Z,11.80
2018-11-03T10:58:41.091Z,12.60
2018-11-03T11:01:15.293Z,13.20
2018-11-03T11:03:49.708Z,13.60
2018-11-03T11:06:23.986Z,14.10
2018-11-03T11:08:58.139Z,14.20
2018-11-03T11:11:32.230Z,13.10
2018-11-03T11:14:01.254Z,12.00
2018-11-03T11:16:30.176Z,11.40
2018-11-03T11:18:59.136Z,10.80
2018-11-03T11:21:28.025Z,9.90
2018-11-03T11:23:57.792Z,9.40
2018-11-03T11:26:26.972Z,9.20
2018-11-03T11:28:56.121Z,9.40
2018-11-03T11:31:25.422Z,9.50
2018-11-03T11:33:54.653Z,9.30
2018-11-03T11:36:23.730Z,9.10
2018-11-03T11:38:52.813Z,9.00
2018-11-03T11:41:22.031Z,8.80
2018-11-03T11:43:51.117Z,8.60
2018-11-03T11:46:20.225Z,8.50
2018-11-03T11:48:49.350Z,8.60
2018-11-03T11:51:18.482Z,8.70
2018-11-03T11:53:47.592Z,8.80
2018-11-03T11:56:16.805Z,9.00
2018-11-03T11:58:45.869Z,9.10
2018-11-03T12:01:14.995Z,9.00
2018-11-03T12:03:44.195Z,9.00
2018-11-03T12:06:13.254Z,8.90
2018-11-03T12:08:42.687Z,8.80
2018-11-03T12:11:11.804Z,8.90
2018-11-03T12:13:41.145Z,8.80
2018-11-03T12:16:10.652Z,8.70
2018-11-03T12:18:39.989Z,8.70
2018-11-03T12:21:09.262Z,8.60
2018-11-03T12:23:38.760Z,8.60
2018-11-03T12:26:07.989Z,8.50
2018-11-03T12:28:37.194Z,8.40
2018-11-03T12:31:07.277Z,8.40
2018-11-03T12:33:36.201Z,8.40
2018-11-03T12:36:05.129Z,8.30
2018-11-03T12:38:34.444Z,8.30
2018-11-03T12:41:03.769Z,8.30
2018-11-03T12:43:32.955Z,8.20
2018-11-03T12:46:02.088Z,8.20
2018-11-03T12:48:31.266Z,8.20
2018-11-03T12:51:00.449Z,8.20
2018-11-03T12:53:29.890Z,8.20
2018-11-03T12:55:58.958Z,8.10
2018-11-03T12:58:28.151Z,8.20
2018-11-03T13:00:57.282Z,8.20
2018-11-03T13:03:26.214Z,8.20
2018-11-03T13:05:55.529Z,8.20
2018-11-03T13:08:24.780Z,8.20
2018-11-03T13:10:54.034Z,8.30
2018-11-03T13:13:23.109Z,8.20
2018-11-03T13:15:52.343Z,8.20
2018-11-03T13:18:21.537Z,8.10
2018-11-03T13:20:50.729Z,8.10
2018-11-03T13:23:20.138Z,8.10
2018-11-03T13:25:49.325Z,8.10
2018-11-03T13:28:18.801Z,8.10
2018-11-03T13:30:47.926Z,8.10
2018-11-03T13:33:17.113Z,8.10
2018-11-03T13:35:46.285Z,8.10
2018-11-03T13:38:15.415Z,8.10
2018-11-03T13:40:44.823Z,8.20
2018-11-03T13:43:14.262Z,7.40
2018-11-03T13:45:43.825Z,8.50
2018-11-03T13:48:13.230Z,8.50
2018-11-03T13:50:42.417Z,8.60
2018-11-03T13:53:11.384Z,8.70
2018-11-03T13:55:40.615Z,8.80
2018-11-03T13:58:09.695Z,8.80
2018-11-03T14:00:40.062Z,8.80
2018-11-03T14:03:10.689Z,8.80
2018-11-03T14:05:40.461Z,8.60
2018-11-03T14:08:09.921Z,8.80
2018-11-03T14:10:39.749Z,8.80
2018-11-03T14:13:08.712Z,8.90
2018-11-03T14:15:37.706Z,8.90
2018-11-03T14:18:06.973Z,8.90
2018-11-03T14:20:36.073Z,8.80
2018-11-03T14:23:05.029Z,8.70
2018-11-03T14:25:34.119Z,8.60
2018-11-03T14:28:03.177Z,8.40
2018-11-03T14:30:32.117Z,8.30
2018-11-03T14:33:01.105Z,8.20
2018-11-03T14:35:30.393Z,8.20
2018-11-03T14:37:59.413Z,8.20
2018-11-03T14:40:29.491Z,8.10
2018-11-03T14:42:58.490Z,8.00
2018-11-03T14:45:27.459Z,7.90
2018-11-03T14:47:56.365Z,7.80
2018-11-03T14:50:29.438Z,7.70
2018-11-03T14:52:58.396Z,7.60
2018-11-03T14:55:27.334Z,7.60
2018-11-03T14:57:56.226Z,7.50
2018-11-03T15:00:25.338Z,7.40
2018-11-03T15:02:54.502Z,7.40
2018-11-03T15:05:23.414Z,7.30
2018-11-03T15:07:52.305Z,7.30
2018-11-03T15:10:21.286Z,7.20
2018-11-03T15:12:50.275Z,7.20
2018-11-03T15:15:19.226Z,7.10
2018-11-03T15:17:48.159Z,7.10
2018-11-03T15:20:17.153Z,7.00
2018-11-03T15:22:46.119Z,7.00
2018-11-03T15:25:15.026Z,7.00
2018-11-03T15:27:43.944Z,7.00
2018-11-03T15:30:14.109Z,6.90
2018-11-03T15:32:43.229Z,6.90
2018-11-03T15:35:13.033Z,6.90
2018-11-03T15:37:41.862Z,6.90
2018-11-03T15:40:12.892Z,6.90
2018-11-03T15:42:41.833Z,6.90
2018-11-03T15:45:17.897Z,6.90
2018-11-03T15:47:47.500Z,6.90
2018-11-03T15:50:17.042Z,6.90
2018-11-03T15:52:46.530Z,6.80
2018-11-03T15:55:15.449Z,6.90
2018-11-03T15:57:44.401Z,6.80
2018-11-03T16:00:17.522Z,6.80
2018-11-03T16:02:46.993Z,6.80
2018-11-03T16:05:16.185Z,6.80
2018-11-03T16:07:46.294Z,6.70
2018-11-03T16:10:15.270Z,6.70
2018-11-03T16:12:44.218Z,6.70
2018-11-03T16:15:13.725Z,6.60
2018-11-03T16:17:43.358Z,6.60
2018-11-03T16:20:13.242Z,6.60
2018-11-03T16:22:42.741Z,6.60
2018-11-03T16:25:11.637Z,6.60
2018-11-03T16:27:41.001Z,6.50
2018-11-03T16:30:12.061Z,6.50
2018-11-03T16:32:41.186Z,6.50
2018-11-03T16:35:09.970Z,6.40
2018-11-03T16:37:39.455Z,6.40
2018-11-03T16:40:10.253Z,6.30
2018-11-03T16:42:39.250Z,6.30
2018-11-03T16:45:09.632Z,6.20
2018-11-03T16:47:38.853Z,6.10
2018-11-03T16:50:09.198Z,6.10
2018-11-03T16:52:38.407Z,6.00
2018-11-03T16:55:08.009Z,5.90
2018-11-03T16:57:37.807Z,5.90
2018-11-03T17:00:09.066Z,5.80
2018-11-03T17:02:38.052Z,5.80
2018-11-03T17:05:08.304Z,5.70
2018-11-03T17:07:37.373Z,5.70
2018-11-03T17:10:09.730Z,5.60
2018-11-03T17:12:39.095Z,5.70
2018-11-03T17:15:08.027Z,5.80
2018-11-03T17:17:37.565Z,5.80
2018-11-03T17:20:07.125Z,5.90
2018-11-03T17:22:36.102Z,5.90
2018-11-03T17:25:06.033Z,6.00
2018-11-03T17:27:37.664Z,6.00
2018-11-03T17:30:08.339Z,6.10
2018-11-03T17:32:37.513Z,6.20
2018-11-03T17:35:06.949Z,6.30
2018-11-03T17:37:35.880Z,6.30
2018-11-03T17:40:05.583Z,6.40
2018-11-03T17:42:34.608Z,6.60
2018-11-03T17:45:03.708Z,6.70
2018-11-03T17:47:33.089Z,6.70
2018-11-03T17:50:02.421Z,6.70
2018-11-03T17:52:31.390Z,6.70
2018-11-03T17:55:00.574Z,6.70
2018-11-03T17:57:29.438Z,6.60
2018-11-03T17:59:58.811Z,6.60
2018-11-03T18:02:27.893Z,6.50
2018-11-03T18:04:57.038Z,6.30
2018-11-03T18:07:26.060Z,6.20
2018-11-03T18:09:55.515Z,6.10
2018-11-03T18:12:25.321Z,6.00
2018-11-03T18:14:54.409Z,5.90
2018-11-03T18:17:24.844Z,5.90
2018-11-03T18:19:54.145Z,5.90
2018-11-03T18:22:23.817Z,5.80
2018-11-03T18:24:53.321Z,5.90
2018-11-03T18:27:22.350Z,6.00
2018-11-03T18:29:51.723Z,5.90
2018-11-03T18:32:20.843Z,6.00
2018-11-03T18:34:50.552Z,5.90
2018-11-03T18:37:19.713Z,5.80
2018-11-03T18:39:48.805Z,5.70
2018-11-03T18:42:18.238Z,5.70
2018-11-03T18:44:47.746Z,5.60
2018-11-03T18:47:17.067Z,5.60
2018-11-03T18:49:46.900Z,5.50
2018-11-03T18:52:16.117Z,5.50
2018-11-03T18:54:45.071Z,5.50
2018-11-03T18:57:14.202Z,5.50
2018-11-03T18:59:43.096Z,5.50
2018-11-03T19:02:12.296Z,5.50
2018-11-03T19:04:41.318Z,5.60
2018-11-03T19:07:10.243Z,5.70
2018-11-03T19:09:39.250Z,5.80
2018-11-03T19:12:09.112Z,6.00
2018-11-03T19:14:38.078Z,6.10
2018-11-03T19:17:07.105Z,6.30
2018-11-03T19:19:36.065Z,6.40
2018-11-03T19:22:05.085Z,6.40
2018-11-03T19:24:33.996Z,6.50
2018-11-03T19:27:03.275Z,6.50
2018-11-03T19:29:32.276Z,6.50
2018-11-03T19:32:01.263Z,6.50
2018-11-03T19:34:30.206Z,6.50
2018-11-03T19:36:59.118Z,6.50
2018-11-03T19:39:28.123Z,6.50
2018-11-03T19:41:57.145Z,6.50
2018-11-03T19:44:26.383Z,6.40
2018-11-03T19:46:55.314Z,6.50
2018-11-03T19:49:24.404Z,6.50
2018-11-03T19:51:53.326Z,6.50
2018-11-03T19:54:22.306Z,6.60
2018-11-03T19:56:51.351Z,6.50
2018-11-03T19:59:20.285Z,6.50
2018-11-03T20:01:49.267Z,6.50
2018-11-03T20:04:18.365Z,6.50
2018-11-03T20:06:47.694Z,6.50
2018-11-03T20:09:16.634Z,6.50
2018-11-03T20:11:45.742Z,6.50
2018-11-03T20:14:14.670Z,6.40
2018-11-03T20:16:43.559Z,6.40
2018-11-03T20:19:12.722Z,6.40
2018-11-03T20:21:41.719Z,6.40
2018-11-03T20:24:10.596Z,6.40
2018-11-03T20:26:39.543Z,6.40
2018-11-03T20:29:11.695Z,6.30
2018-11-03T20:31:40.602Z,6.30
2018-11-03T20:34:09.555Z,6.30
2018-11-03T20:36:38.558Z,6.40
2018-11-03T20:41:36.974Z,6.40
2018-11-03T20:44:06.318Z,6.30
2018-11-03T20:46:35.840Z,6.30
2018-11-03T20:49:05.179Z,6.30
2018-11-03T20:51:34.180Z,6.30
2018-11-03T20:54:03.241Z,6.30
2018-11-03T20:56:32.269Z,6.40
2018-11-03T20:59:01.370Z,6.40
2018-11-03T21:01:30.464Z,6.30
2018-11-03T21:04:00.146Z,6.20
2018-11-03T21:06:29.354Z,6.20
2018-11-03T21:08:58.463Z,6.00
2018-11-03T21:11:28.438Z,5.90
2018-11-03T21:13:57.615Z,5.80
2018-11-03T21:16:26.793Z,5.60
2018-11-03T21:18:56.933Z,5.50
2018-11-03T21:21:27.429Z,5.40
2018-11-03T21:23:57.032Z,5.40
2018-11-03T21:26:26.217Z,5.40
2018-11-03T21:28:55.911Z,5.40
2018-11-03T21:31:24.908Z,5.40
2018-11-03T21:33:54.640Z,5.40
2018-11-03T21:36:24.445Z,5.50
2018-11-03T21:38:54.731Z,5.50
2018-11-03T21:41:24.103Z,5.60
2018-11-03T21:43:53.418Z,5.70
2018-11-03T21:46:22.767Z,5.60
2018-11-03T21:48:51.777Z,5.60
2018-11-03T21:51:20.767Z,5.50
2018-11-03T21:53:50.188Z,5.40
2018-11-03T21:56:19.142Z,5.40
2018-11-03T21:58:48.106Z,5.40
2018-11-03T22:01:17.213Z,5.50
2018-11-03T22:03:46.267Z,5.50
2018-11-03T22:06:15.773Z,5.50
2018-11-03T22:08:44.714Z,5.50
2018-11-03T22:11:13.891Z,5.50
2018-11-03T22:13:42.991Z,5.50
2018-11-03T22:16:12.144Z,5.40
2018-11-03T22:18:41.245Z,5.40
2018-11-03T22:21:10.473Z,5.40
2018-11-03T22:23:39.782Z,5.50
2018-11-03T22:26:09.074Z,5.50
2018-11-03T22:28:38.094Z,5.50
2018-11-03T22:31:07.369Z,5.50
2018-11-03T22:33:36.238Z,5.60
2018-11-03T22:36:05.433Z,5.60
2018-11-03T22:38:35.255Z,5.60
2018-11-03T22:41:04.569Z,5.60
2018-11-03T22:43:33.661Z,5.70
2018-11-03T22:46:02.758Z,5.70
2018-11-03T22:48:31.913Z,5.70
2018-11-03T22:51:01.264Z,5.70
2018-11-03T22:53:30.342Z,5.70
2018-11-03T22:55:59.501Z,5.50
2018-11-03T22:58:28.633Z,5.40
2018-11-03T23:00:58.319Z,5.30
2018-11-03T23:03:27.582Z,5.20
2018-11-03T23:05:56.529Z,5.20
2018-11-03T23:08:25.841Z,5.20
2018-11-03T23:10:55.113Z,5.30
2018-11-03T23:13:24.117Z,5.30
2018-11-03T23:15:53.422Z,5.30
2018-11-03T23:18:22.287Z,5.20
2018-11-03T23:20:51.213Z,5.30
2018-11-03T23:23:20.497Z,5.30
2018-11-03T23:25:49.902Z,5.30
2018-11-03T23:28:19.105Z,5.30
2018-11-03T23:30:48.266Z,5.30
2018-11-03T23:33:17.503Z,5.30
2018-11-03T23:35:46.407Z,5.20
2018-11-03T23:38:15.297Z,5.10
2018-11-03T23:40:45.268Z,5.10
2018-11-03T23:43:14.413Z,5.00
2018-11-03T23:45:43.550Z,4.90
2018-11-03T23:48:12.647Z,4.90
2018-11-03T23:50:41.770Z,4.90
2018-11-03T23:53:10.881Z,4.90
2018-11-03T23:55:39.956Z,4.90
2018-11-03T23:58:09.934Z,4.90
